HOURLY OBS INDEX

045

Far Southwest

BALLERA GAS FIELD

Site: 045009
Alt: 114.5m
208km WNW of THARGOMINDAH


  Time     Wind        Temp  DP   Baro     Rain since   Rain past  Vis(m), Cloud(base in m), Weather
  local        km/h                         9am  last   hr   10m    
Thu 15:00  WSW 45/ 61  34.8  3.4  1002.4    0.0   0.0   0.0   0.0   10000 
Thu 15:06  WSW 43/ 61  34.8  4.4  1002.2    0.0   0.0  ----   0.0   10000 
Thu 15:30  WSW 39/ 50  34.3  2.0  1002.2    0.0   0.0   0.0   0.0   10000 
Thu 16:00  WSW 41/ 54  35.0 -4.1  1002.2    0.0   0.0   0.0   0.0   10000 
Thu 16:06  WSW 39/ 58  34.7 -6.1  1002.2    0.0   0.0  ----   0.0   10000|SC1290 
Thu 16:30  WSW 46/ 61  33.6 -3.6  1002.1    0.0   0.0   0.0   0.0   10000 
Thu 17:00  WSW 41/ 56  32.8 -4.2  1002.2    0.0   0.0   0.0   0.0   10000 
Thu 17:12  WSW 43/ 61  32.9 -4.1  1002.5    0.0   0.0  ----   0.0   10000|SC1290 
Thu 17:30  WSW 45/ 59  32.1 -4.7  1002.7    0.0   0.0   0.0   0.0   10000|SC1290 SC1530 
Thu 18:00  WSW 48/ 61  31.0 -7.1  1002.9    0.0   0.0   0.0   0.0   10000|BR1140 OC1380 
Thu 18:00  WSW 48/ 61  31.0 -7.1  1002.9    0.0   0.0  ----   0.0   10000|BR1140 OC1380 
Thu 18:30   SW 45/ 56  30.0 -7.8  1003.3    0.0   0.0   0.0   0.0   10000|BR1080 OC1290 OC1440 
Thu 19:00   SW 41/ 50  29.2 -6.9  1003.8    0.0   0.0   0.0   0.0   10000|BR1200 OC1380 
Thu 19:30  WSW 41/ 50  28.5 -8.9  1004.3    0.0   0.0   0.0   0.0   10000|OC1380 
Thu 20:00  WSW 41/ 50  27.7 -8.0  1004.6    0.0   0.0   0.0   0.0   10000|OC1440 
Thu 20:00  WSW 41/ 50  27.7 -8.0  1004.6    0.0   0.0  ----   0.0   10000|OC1440 
Thu 20:00  WSW 41/ 50  27.7 -8.0  1004.6    0.0   0.0  ----   0.0   10000|OC1440 
Thu 20:30  WSW 37/ 50  27.0 -5.9  1005.1    0.0   0.0   0.0   0.0    8000|OC1320 

JACKSON AIRSERVICES AUSTRALIA

Site: 045068
Alt: 193.0m
149km WNW of THARGOMINDAH


  Time     Wind        Temp  DP   Baro     Rain since   Rain past  Vis(m), Cloud(base in m), Weather
  local        km/h                         9am  last   hr   10m    
Thu 15:00  ------/--- --------  1002.3   ----  ----  ----  ----   ----- 
Thu 15:30  ------/--- --------  1002.0   ----  ----  ----  ----   ----- 
Thu 16:00  ------/--- --------  1001.7   ----  ----  ----  ----   ----- 
Thu 16:30  ------/--- --------  1001.7   ----  ----  ----  ----   ----- 
Thu 17:00  ------/--- --------  1001.8   ----  ----  ----  ----   ----- 
Thu 17:30  ------/--- --------  1002.2   ----  ----  ----  ----   ----- 
Thu 18:00  ------/--- --------  1002.5   ----  ----  ----  ----   ----- 
Thu 18:00  ------/--- --------  1002.5   ----  ----  ----  ----   ----- 
Thu 18:30  ------/--- --------  1003.0   ----  ----  ----  ----   ----- 
Thu 19:00  ------/--- --------  1003.5   ----  ----  ----  ----   ----- 
Thu 19:30  ------/--- --------  1003.9   ----  ----  ----  ----   ----- 
Thu 20:00  ------/--- --------  1004.3   ----  ----  ----  ----   ----- 
Thu 20:00  ------/--- --------  1004.3   ----  ----  ----  ----   ----- 
Thu 20:00  ------/--- --------  1004.3   ----  ----  ----  ----   ----- 
Thu 20:30  ------/--- --------  1004.6   ----  ----  ----  ----   ----- 

THARGOMINDAH AIRPORT

Site: 045025
Alt: 130.9m
1km SSW of THARGOMINDAH


  Time     Wind        Temp  DP   Baro     Rain since   Rain past  Vis(m), Cloud(base in m), Weather
  local        km/h                         9am  last   hr   10m    
Thu 15:00  WSW 26/ 46  36.0 13.5  1000.0    0.0   0.0   0.0   0.0   10000|SC2550 SC3300 
Thu 15:22  WSW 28/ 52  36.4 12.6   999.9    0.0   0.0  ----   0.0   10000|SC2580 
Thu 15:22  WSW 28/ 52  36.4 12.6   999.9    0.0   0.0  ----   0.0   10000|SC2580 
Thu 15:30    W 28/ 52  36.6 12.7   999.7    0.0   0.0   0.0   0.0   10000 
Thu 16:00   SW 32/ 43  35.6 12.5   999.6    0.0   0.0   0.0   0.0   10000 
Thu 16:10   SW 28/ 50  36.0 12.2   999.3    0.0   0.0  ----   0.0   10000 
Thu 16:30   SW 35/ 50  34.9 11.3   999.4    0.0   0.0   0.0   0.0   ----- 
Thu 17:00   SW 33/ 50  34.7 10.5   999.3    0.0   0.0   0.0   0.0   10000 
Thu 17:16  WSW 32/ 50  35.1  6.4   999.4    0.0   0.0  ----   0.0   10000 
Thu 17:30  WSW 39/ 56  35.0  4.5   999.5    0.0   0.0   0.0   0.0   10000 
Thu 17:32  WSW 37/ 56  34.7  4.3   999.6    0.0   0.0  ----   0.0   10000 
Thu 17:59   SW 35/ 46  33.1  6.4  1000.0    0.0   0.0  ----   0.0   10000 
Thu 17:59   SW 35/ 46  33.1  6.4  1000.0    0.0   0.0  ----   0.0   10000 
Thu 18:00   SW 35/ 46  32.9  6.2  1000.0    0.0   0.0   0.0   0.0   10000 
Thu 18:00   SW 35/ 46  32.9  6.2  1000.0    0.0   0.0  ----   0.0   10000 
Thu 18:30   SW 39/ 50  31.4  3.4  1000.7    0.0   0.0   0.0   0.0    7000|OC 930 
Thu 18:41  SSW 41/ 54  31.0  2.3  1001.0    0.0   0.0  ----   0.0    5000|OC 930 
Thu 19:00  SSW 37/ 52  30.3  1.7  1001.5    0.0   0.0   0.0   0.0    6000|OC 990 
Thu 19:02  SSW 37/ 52  30.3  1.7  1001.4    0.0   0.0  ----   0.0    6000|OC 990 
Thu 19:30  SSW 33/ 43  29.5  1.1  1002.0    0.0   0.0   0.0   0.0    7000|OC1050 
Thu 20:00   SW 30/ 43  28.6  0.3  1002.3    0.0   0.0   0.0   0.0    9000 
Thu 20:00   SW 30/ 43  28.6  0.3  1002.3    0.0   0.0  ----   0.0    9000 
Thu 20:00   SW 30/ 43  28.6  0.3  1002.3    0.0   0.0  ----   0.0    9000 
Thu 20:02   SW 32/ 50  28.5  0.3  1002.3    0.0   0.0  ----   0.0    9000 
Thu 20:02   SW 32/ 50  28.5  0.3  1002.3    0.0   0.0  ----   0.0    9000 
Thu 20:02   SW 32/ 50  28.5  0.3  1002.3    0.0   0.0  ----   0.0    9000 
Thu 20:30  SSW 33/ 46  27.9  0.6  1003.0    0.0   0.0   0.0   0.0    7000 
Thu 20:50  SSW 35/ 46  27.2  1.6  1003.4    0.0   0.0   0.0   0.0    5000